createdAt,value
2023-05-28T00:00:48.417Z,101566.09
2023-05-28T00:01:39.822Z,101568.69
2023-05-28T00:02:33.941Z,101559.97
2023-05-28T00:03:26.291Z,101563.38
2023-05-28T00:04:18.018Z,101572.03
2023-05-28T00:05:09.801Z,101571.03
2023-05-28T00:06:01.512Z,101568.31
2023-05-28T00:06:56.670Z,101571.72
2023-05-28T00:07:48.216Z,101568.91
2023-05-28T00:08:42.122Z,101574.84
2023-05-28T00:09:35.874Z,101572.06
2023-05-28T00:10:29.722Z,101578.06
2023-05-28T00:11:22.672Z,101573.63
2023-05-28T00:12:14.148Z,101574.44
2023-05-28T00:13:05.899Z,101574.34
2023-05-28T00:13:57.500Z,101569.97
2023-05-28T00:14:49.434Z,101570.72
2023-05-28T00:15:41.201Z,101567.22
2023-05-28T00:16:36.404Z,101571.53
2023-05-28T00:17:31.002Z,101573.13
2023-05-28T00:18:22.695Z,101573.22
2023-05-28T00:19:14.238Z,101570.59
2023-05-28T00:20:06.860Z,101569.81
2023-05-28T00:20:58.761Z,101571.53
2023-05-28T00:21:50.226Z,101567.06
2023-05-28T00:22:41.687Z,101570.63
2023-05-28T00:23:33.333Z,101574.03
2023-05-28T00:24:26.041Z,101565.31
2023-05-28T00:25:17.586Z,101570.44
2023-05-28T00:26:09.010Z,101566.84
2023-05-28T00:27:00.869Z,101563.25
2023-05-28T00:27:52.514Z,101562.41
2023-05-28T00:28:44.023Z,101565.31
2023-05-28T00:29:35.734Z,101558.44
2023-05-28T00:30:27.682Z,101568.09
2023-05-28T00:31:19.221Z,101565.81
2023-05-28T00:32:10.708Z,101567.50
2023-05-28T00:33:02.230Z,101558.75
2023-05-28T00:33:53.989Z,101558.59
2023-05-28T00:34:45.932Z,101563.84
2023-05-28T00:35:37.493Z,101565.59
2023-05-28T00:36:29.254Z,101560.38
2023-05-28T00:37:21.053Z,101558.84
2023-05-28T00:38:12.755Z,101553.59
2023-05-28T00:39:06.008Z,101557.91
2023-05-28T00:39:57.782Z,101556.25
2023-05-28T00:40:51.704Z,101556.22
2023-05-28T00:41:45.608Z,101558.72
2023-05-28T00:42:37.282Z,101560.13
2023-05-28T00:43:28.723Z,101555.53
2023-05-28T00:44:20.269Z,101556.34
2023-05-28T00:45:15.133Z,101556.97
2023-05-28T00:46:07.994Z,101557.81
2023-05-28T00:47:00.632Z,101558.47
2023-05-28T00:47:55.514Z,101553.97
2023-05-28T00:48:47.384Z,101551.22
2023-05-28T00:49:38.796Z,101555.53
2023-05-28T00:50:30.424Z,101555.59
2023-05-28T00:51:22.144Z,101549.63
2023-05-28T00:52:15.039Z,101554.88
2023-05-28T00:53:08.055Z,101546.97
2023-05-28T00:54:00.165Z,101557.19
2023-05-28T00:54:52.077Z,101562.16
2023-05-28T00:55:44.870Z,101556.66
2023-05-28T00:56:36.676Z,101554.88
2023-05-28T00:57:28.925Z,101556.44
2023-05-28T00:58:21.643Z,101554.56
2023-05-28T00:59:13.547Z,101554.44
2023-05-28T01:00:05.733Z,101554.41
2023-05-28T01:00:57.447Z,101556.06
2023-05-28T01:01:49.183Z,101558.91
2023-05-28T01:02:41.131Z,101550.66
2023-05-28T01:03:33.391Z,101552.56
2023-05-28T01:04:25.653Z,101553.44
2023-05-28T01:05:18.155Z,101549.88
2023-05-28T01:06:13.603Z,101555.31
2023-05-28T01:07:05.706Z,101557.97
2023-05-28T01:07:57.601Z,101553.44
2023-05-28T01:08:50.669Z,101559.53
2023-05-28T01:09:42.156Z,101556.00
2023-05-28T01:10:36.385Z,101554.97
2023-05-28T01:11:31.381Z,101553.91
2023-05-28T01:12:26.906Z,101551.97
2023-05-28T01:13:20.836Z,101555.50
2023-05-28T01:14:14.325Z,101552.03
2023-05-28T01:15:06.704Z,101548.31
2023-05-28T01:16:05.984Z,101555.91
2023-05-28T01:16:59.631Z,101542.75
2023-05-28T01:17:59.379Z,101547.84
2023-05-28T01:18:56.395Z,101547.72
2023-05-28T01:19:50.895Z,101546.66
2023-05-28T01:20:42.588Z,101548.56
2023-05-28T01:21:41.115Z,101542.53
2023-05-28T01:22:41.616Z,101544.31
2023-05-28T01:23:44.810Z,101544.34
2023-05-28T01:24:39.007Z,101547.78
2023-05-28T01:25:32.063Z,101545.25
2023-05-28T01:26:26.817Z,101535.56
2023-05-28T01:27:19.293Z,101543.06
2023-05-28T01:28:14.121Z,101537.63
2023-05-28T01:29:16.720Z,101533.19
2023-05-28T01:30:15.898Z,101542.75
2023-05-28T01:31:10.848Z,101539.28
2023-05-28T01:32:02.373Z,101537.44
2023-05-28T01:32:55.136Z,101542.50
2023-05-28T01:33:47.473Z,101535.66
2023-05-28T01:34:39.150Z,101542.59
2023-05-28T01:35:30.618Z,101535.72
2023-05-28T01:36:31.865Z,101539.88
2023-05-28T01:37:26.107Z,101535.38
2023-05-28T01:38:24.554Z,101536.13
2023-05-28T01:39:20.270Z,101548.03
2023-05-28T01:40:15.566Z,101549.69
2023-05-28T01:41:08.814Z,101544.38
2023-05-28T01:42:03.815Z,101548.75
2023-05-28T01:42:58.752Z,101545.53
2023-05-28T01:43:51.112Z,101540.34
2023-05-28T01:44:44.786Z,101545.44
2023-05-28T01:45:37.235Z,101543.47
2023-05-28T01:46:30.826Z,101540.75
2023-05-28T01:47:23.583Z,101543.31
2023-05-28T01:48:16.438Z,101545.00
2023-05-28T01:49:10.570Z,101549.22
2023-05-28T01:50:02.170Z,101546.63
2023-05-28T01:50:55.117Z,101549.91
2023-05-28T01:51:46.566Z,101546.38
2023-05-28T01:52:39.719Z,101542.66
2023-05-28T01:53:31.245Z,101537.47
2023-05-28T01:54:23.634Z,101543.50
2023-05-28T01:55:15.473Z,101548.75
2023-05-28T01:56:10.426Z,101546.25
2023-05-28T01:57:03.060Z,101547.00
2023-05-28T01:57:56.855Z,101545.22
2023-05-28T01:58:48.435Z,101543.44
2023-05-28T01:59:39.972Z,101547.00
2023-05-28T02:00:36.455Z,101541.72
2023-05-28T02:01:34.601Z,101540.03
2023-05-28T02:02:28.862Z,101544.41
2023-05-28T02:03:20.547Z,101541.59
2023-05-28T02:04:12.181Z,101544.84
2023-05-28T02:05:04.934Z,101547.44
2023-05-28T02:05:56.583Z,101543.91
2023-05-28T02:06:48.369Z,101543.19
2023-05-28T02:07:39.851Z,101546.53
2023-05-28T02:08:31.318Z,101540.41
2023-05-28T02:09:27.220Z,101536.28
2023-05-28T02:10:18.681Z,101540.34
2023-05-28T02:11:10.090Z,101534.47
2023-05-28T02:12:04.207Z,101533.63
2023-05-28T02:12:56.031Z,101534.22
2023-05-28T02:13:47.561Z,101531.34
2023-05-28T02:14:39.345Z,101529.44
2023-05-28T02:15:30.994Z,101528.38
2023-05-28T02:16:23.449Z,101532.56
2023-05-28T02:17:15.134Z,101529.69
2023-05-28T02:18:07.178Z,101529.53
2023-05-28T02:19:00.179Z,101535.53
2023-05-28T02:19:51.732Z,101528.53
2023-05-28T02:20:43.848Z,101529.22
2023-05-28T02:21:37.147Z,101535.97
2023-05-28T02:22:28.640Z,101530.63
2023-05-28T02:23:20.394Z,101523.56
2023-05-28T02:24:12.865Z,101522.56
2023-05-28T02:25:04.969Z,101527.75
2023-05-28T02:25:57.474Z,101526.56
2023-05-28T02:26:49.147Z,101528.28
2023-05-28T02:27:40.644Z,101519.47
2023-05-28T02:28:32.097Z,101523.56
2023-05-28T02:29:23.532Z,101519.91
2023-05-28T02:30:17.463Z,101519.91
2023-05-28T02:31:08.901Z,101521.59
2023-05-28T02:32:01.902Z,101514.50
2023-05-28T02:32:53.674Z,101523.94
2023-05-28T02:33:45.239Z,101520.34
2023-05-28T02:34:36.962Z,101526.34
2023-05-28T02:35:28.953Z,101516.66
2023-05-28T02:36:24.122Z,101526.94
2023-05-28T02:37:16.799Z,101521.63
2023-05-28T02:38:09.295Z,101517.22
2023-05-28T02:39:01.177Z,101519.81
2023-05-28T02:39:52.722Z,101521.38
2023-05-28T02:40:44.430Z,101518.69
2023-05-28T02:41:36.261Z,101516.91
2023-05-28T02:42:27.833Z,101517.69
2023-05-28T02:43:19.301Z,101515.97
2023-05-28T02:44:12.228Z,101516.78
2023-05-28T02:45:05.229Z,101514.16
2023-05-28T02:46:00.461Z,101520.16
2023-05-28T02:46:51.922Z,101515.84
2023-05-28T02:47:43.430Z,101516.66
2023-05-28T02:48:35.400Z,101511.41
2023-05-28T02:49:28.098Z,101520.03
2023-05-28T02:50:19.554Z,101517.44
2023-05-28T02:51:29.862Z,101521.56
2023-05-28T02:52:50.369Z,101527.53
2023-05-28T02:53:42.134Z,101523.06
2023-05-28T02:54:34.065Z,101523.00
2023-05-28T02:55:25.747Z,101525.59
2023-05-28T02:56:17.548Z,101531.69
2023-05-28T02:57:10.520Z,101526.41
2023-05-28T02:58:02.296Z,101529.00
2023-05-28T02:58:54.423Z,101526.41
2023-05-28T02:59:46.076Z,101528.19
2023-05-28T03:00:37.907Z,101527.53
2023-05-28T03:01:29.538Z,101531.81
2023-05-28T03:02:26.269Z,101532.72
2023-05-28T03:03:20.396Z,101534.53
2023-05-28T03:04:13.623Z,101532.97
2023-05-28T03:05:06.141Z,101530.38
2023-05-28T03:05:58.085Z,101539.81
2023-05-28T03:06:51.965Z,101534.63
2023-05-28T03:07:43.444Z,101537.91
2023-05-28T03:08:35.059Z,101538.63
2023-05-28T03:09:26.498Z,101528.25
2023-05-28T03:10:18.870Z,101537.75
2023-05-28T03:11:10.348Z,101528.34
2023-05-28T03:12:04.605Z,101531.81
2023-05-28T03:12:57.739Z,101531.69
2023-05-28T03:13:49.213Z,101532.03
2023-05-28T03:14:41.229Z,101536.31
2023-05-28T03:15:33.876Z,101530.16
2023-05-28T03:16:27.929Z,101534.41
2023-05-28T03:17:19.984Z,101528.34
2023-05-28T03:18:12.846Z,101526.63
2023-05-28T03:19:09.238Z,101527.31
2023-05-28T03:20:04.588Z,101533.22
2023-05-28T03:20:56.223Z,101529.53
2023-05-28T03:21:47.910Z,101529.50
2023-05-28T03:22:43.820Z,101532.81
2023-05-28T03:23:35.578Z,101528.41
2023-05-28T03:24:36.161Z,101532.63
2023-05-28T03:25:34.563Z,101526.69
2023-05-28T03:26:26.386Z,101534.31
2023-05-28T03:27:18.235Z,101527.31
2023-05-28T03:28:09.797Z,101533.34
2023-05-28T03:29:13.779Z,101529.00
2023-05-28T03:30:20.071Z,101528.19
2023-05-28T03:31:15.157Z,101524.91
2023-05-28T03:32:07.138Z,101528.44
2023-05-28T03:32:58.705Z,101527.84
2023-05-28T03:33:50.216Z,101526.28
2023-05-28T03:34:41.793Z,101528.00
2023-05-28T03:35:33.283Z,101529.53
2023-05-28T03:36:27.496Z,101526.91
2023-05-28T03:37:19.179Z,101524.31
2023-05-28T03:38:10.930Z,101525.25
2023-05-28T03:39:02.406Z,101525.25
2023-05-28T03:39:55.089Z,101532.34
2023-05-28T03:40:47.651Z,101529.69
2023-05-28T03:41:39.248Z,101527.91
2023-05-28T03:42:32.634Z,101531.25
2023-05-28T03:43:24.626Z,101525.19
2023-05-28T03:44:18.406Z,101528.53
2023-05-28T03:45:10.878Z,101525.84
2023-05-28T03:46:03.225Z,101518.03
2023-05-28T03:46:54.822Z,101526.63
2023-05-28T03:47:47.675Z,101522.25
2023-05-28T03:48:39.974Z,101523.94
2023-05-28T03:49:32.304Z,101527.34
2023-05-28T03:50:27.637Z,101525.66
2023-05-28T03:51:19.250Z,101534.25
2023-05-28T03:52:11.524Z,101521.31
2023-05-28T03:53:13.015Z,101534.19
2023-05-28T03:54:07.210Z,101529.81
2023-05-28T03:55:00.201Z,101535.09
2023-05-28T03:55:52.616Z,101527.31
2023-05-28T03:56:45.519Z,101536.78
2023-05-28T03:57:37.475Z,101533.34
2023-05-28T03:58:28.977Z,101535.09
2023-05-28T03:59:24.750Z,101535.13
2023-05-28T04:00:18.810Z,101529.94
2023-05-28T04:01:10.265Z,101535.28
2023-05-28T04:02:01.827Z,101530.31
2023-05-28T04:02:53.751Z,101527.38
2023-05-28T04:03:45.697Z,101528.19
2023-05-28T04:04:37.283Z,101534.19
2023-05-28T04:05:28.891Z,101529.69
2023-05-28T04:06:20.807Z,101533.91
2023-05-28T04:07:12.531Z,101535.69
2023-05-28T04:08:04.933Z,101533.09
2023-05-28T04:08:58.299Z,101532.13
2023-05-28T04:09:49.955Z,101531.25
2023-05-28T04:10:41.464Z,101526.09
2023-05-28T04:11:35.702Z,101536.59
2023-05-28T04:12:27.635Z,101533.19
2023-05-28T04:13:19.087Z,101525.53
2023-05-28T04:14:10.600Z,101527.38
2023-05-28T04:15:04.896Z,101523.00
2023-05-28T04:15:56.820Z,101528.19
2023-05-28T04:16:51.402Z,101522.22
2023-05-28T04:17:43.451Z,101524.72
2023-05-28T04:18:34.975Z,101524.81
2023-05-28T04:19:27.132Z,101522.34
2023-05-28T04:20:18.936Z,101525.81
2023-05-28T04:21:13.845Z,101526.75
2023-05-28T04:22:06.175Z,101528.53
2023-05-28T04:22:57.750Z,101532.91
2023-05-28T04:23:49.860Z,101526.06
2023-05-28T04:24:42.160Z,101527.78
2023-05-28T04:25:35.510Z,101523.44
2023-05-28T04:26:27.422Z,101526.03
2023-05-28T04:27:21.158Z,101530.38
2023-05-28T04:28:12.646Z,101527.84
2023-05-28T04:29:04.334Z,101526.28
2023-05-28T04:29:57.824Z,101530.56
2023-05-28T04:30:49.776Z,101528.88
2023-05-28T04:31:45.407Z,101531.59
2023-05-28T04:32:40.104Z,101531.59
2023-05-28T04:33:31.786Z,101529.88
2023-05-28T04:34:25.509Z,101529.88
2023-05-28T04:35:20.651Z,101532.59
2023-05-28T04:36:14.459Z,101539.66
2023-05-28T04:37:06.174Z,101535.50
2023-05-28T04:37:57.566Z,101536.50
2023-05-28T04:38:49.044Z,101535.75
2023-05-28T04:39:40.499Z,101541.91
2023-05-28T04:40:33.480Z,101538.50
2023-05-28T04:41:26.194Z,101541.94
2023-05-28T04:42:19.197Z,101542.03
2023-05-28T04:43:10.901Z,101542.03
2023-05-28T04:44:10.593Z,101545.56
2023-05-28T04:45:05.779Z,101545.63
2023-05-28T04:45:59.804Z,101544.06
2023-05-28T04:46:55.077Z,101546.72
2023-05-28T04:47:46.661Z,101550.34
2023-05-28T04:48:38.184Z,101547.00
2023-05-28T04:49:30.518Z,101546.19
2023-05-28T04:50:24.388Z,101547.13
2023-05-28T04:51:21.785Z,101551.53
2023-05-28T04:52:13.260Z,101550.81
2023-05-28T04:53:04.766Z,101554.47
2023-05-28T04:53:57.417Z,101552.13
2023-05-28T04:54:48.879Z,101555.75
2023-05-28T04:55:41.118Z,101549.91
2023-05-28T04:56:32.789Z,101549.13
2023-05-28T04:57:24.495Z,101549.25
2023-05-28T04:58:16.917Z,101553.72
2023-05-28T04:59:10.891Z,101559.03
2023-05-28T05:00:04.436Z,101554.78
2023-05-28T05:00:56.997Z,101558.31
2023-05-28T05:01:49.315Z,101559.22
2023-05-28T05:02:44.581Z,101570.59
2023-05-28T05:03:36.747Z,101560.28
2023-05-28T05:04:30.124Z,101562.19
2023-05-28T05:05:21.716Z,101566.69
2023-05-28T05:06:13.186Z,101563.38
2023-05-28T05:07:05.119Z,101572.25
2023-05-28T05:07:57.538Z,101567.25
2023-05-28T05:08:49.456Z,101569.97
2023-05-28T05:09:41.308Z,101569.38
2023-05-28T05:10:32.965Z,101569.56
2023-05-28T05:11:27.222Z,101572.25
2023-05-28T05:12:19.614Z,101569.00
2023-05-28T05:13:13.825Z,101566.56
2023-05-28T05:14:08.518Z,101568.53
2023-05-28T05:14:59.943Z,101571.22
2023-05-28T05:15:52.618Z,101571.28
2023-05-28T05:16:47.086Z,101570.56
2023-05-28T05:17:38.624Z,101575.97
2023-05-28T05:18:31.710Z,101570.94
2023-05-28T05:19:23.137Z,101570.16
2023-05-28T05:20:14.704Z,101572.84
2023-05-28T05:21:06.357Z,101574.72
2023-05-28T05:21:57.777Z,101568.84
2023-05-28T05:22:49.201Z,101572.56
2023-05-28T05:23:41.145Z,101572.75
2023-05-28T05:24:33.292Z,101573.69
2023-05-28T05:25:24.784Z,101574.69
2023-05-28T05:26:18.388Z,101576.44
2023-05-28T05:27:10.159Z,101577.47
2023-05-28T05:28:01.686Z,101573.25
2023-05-28T05:28:54.621Z,101576.13
2023-05-28T05:29:46.371Z,101578.72
2023-05-28T05:30:38.080Z,101577.97
2023-05-28T05:31:34.817Z,101576.25
2023-05-28T05:32:26.434Z,101578.22
2023-05-28T05:33:18.747Z,101582.66
2023-05-28T05:34:36.323Z,101577.75
2023-05-28T05:35:46.741Z,101571.84
2023-05-28T05:36:53.498Z,101564.06
2023-05-28T05:38:03.763Z,101570.25
2023-05-28T05:39:15.592Z,101571.31
2023-05-28T05:40:36.524Z,101567.16
2023-05-28T05:41:39.405Z,101567.25
2023-05-28T05:42:42.021Z,101565.63
2023-05-28T05:43:34.429Z,101570.06
2023-05-28T05:44:26.113Z,101567.56
2023-05-28T05:45:17.578Z,101564.22
2023-05-28T05:46:10.633Z,101569.47
2023-05-28T05:47:02.186Z,101573.00
2023-05-28T05:47:53.742Z,101570.66
2023-05-28T05:48:45.321Z,101582.94
2023-05-28T05:49:37.843Z,101572.75
2023-05-28T05:50:29.478Z,101572.94
2023-05-28T05:51:22.136Z,101580.16
2023-05-28T05:52:13.838Z,101580.47
2023-05-28T05:53:09.398Z,101577.31
2023-05-28T05:54:00.891Z,101572.31
2023-05-28T05:54:53.065Z,101573.47
2023-05-28T05:55:45.113Z,101577.19
2023-05-28T05:56:36.845Z,101579.19
2023-05-28T05:57:28.405Z,101577.53
2023-05-28T05:58:20.998Z,101576.75
2023-05-28T05:59:12.654Z,101574.28
2023-05-28T06:00:09.491Z,101576.09
2023-05-28T06:01:11.045Z,101575.38
2023-05-28T06:02:02.759Z,101580.72
2023-05-28T06:02:57.372Z,101575.59
2023-05-28T06:04:18.195Z,101583.59
2023-05-28T06:05:35.154Z,101579.31
2023-05-28T06:06:40.470Z,101580.41
2023-05-28T06:07:54.772Z,101576.25
2023-05-28T06:09:05.590Z,101579.81
2023-05-28T06:10:10.264Z,101573.06
2023-05-28T06:11:06.354Z,101575.69
2023-05-28T06:11:58.112Z,101577.47
2023-05-28T06:12:49.604Z,101566.22
2023-05-28T06:13:41.417Z,101575.03
2023-05-28T06:14:33.506Z,101568.13
2023-05-28T06:15:25.900Z,101569.97
2023-05-28T06:16:17.605Z,101567.53
2023-05-28T06:17:10.316Z,101570.28
2023-05-28T06:18:02.784Z,101565.28
2023-05-28T06:18:55.460Z,101574.13
2023-05-28T06:19:50.198Z,101575.19
2023-05-28T06:20:43.662Z,101572.72
2023-05-28T06:21:37.817Z,101574.72
2023-05-28T06:22:30.989Z,101575.69
2023-05-28T06:23:22.605Z,101583.56
2023-05-28T06:24:14.861Z,101580.16
2023-05-28T06:25:09.684Z,101580.22
2023-05-28T06:26:04.605Z,101581.09
2023-05-28T06:26:56.048Z,101581.09
2023-05-28T06:27:50.775Z,101581.16
2023-05-28T06:28:42.483Z,101582.06
2023-05-28T06:29:33.944Z,101580.41
2023-05-28T06:30:28.587Z,101576.97
2023-05-28T06:31:22.945Z,101581.38
2023-05-28T06:32:15.715Z,101587.59
2023-05-28T06:33:10.404Z,101582.56
2023-05-28T06:34:03.759Z,101581.72
2023-05-28T06:34:55.359Z,101586.16
2023-05-28T06:35:47.159Z,101581.13
2023-05-28T06:36:39.403Z,101575.91
2023-05-28T06:37:30.879Z,101575.19
2023-05-28T06:38:22.789Z,101576.97
2023-05-28T06:39:14.295Z,101580.50
2023-05-28T06:40:11.886Z,101576.25
2023-05-28T06:41:03.983Z,101579.91
2023-05-28T06:42:01.972Z,101570.50
2023-05-28T06:43:06.016Z,101573.22
2023-05-28T06:44:01.279Z,101565.41
2023-05-28T06:45:02.060Z,101571.56
2023-05-28T06:45:54.096Z,101569.91
2023-05-28T06:46:48.918Z,101572.59
2023-05-28T06:47:40.704Z,101574.41
2023-05-28T06:48:33.290Z,101567.53
2023-05-28T06:49:24.736Z,101572.78
2023-05-28T06:50:19.971Z,101569.31
2023-05-28T06:51:15.914Z,101572.84
2023-05-28T06:52:08.054Z,101565.22
2023-05-28T06:53:02.768Z,101570.47
2023-05-28T06:53:54.272Z,101569.59
2023-05-28T06:54:50.689Z,101564.38
2023-05-28T06:55:44.029Z,101573.19
2023-05-28T06:56:56.549Z,101568.88
2023-05-28T06:57:50.669Z,101571.50
2023-05-28T06:59:17.202Z,101564.66
2023-05-28T07:00:28.386Z,101566.63
2023-05-28T07:01:31.474Z,101570.34
2023-05-28T07:02:48.973Z,101573.94
2023-05-28T07:04:03.764Z,101580.28
2023-05-28T07:05:05.566Z,101575.19
2023-05-28T07:05:59.522Z,101571.00
2023-05-28T07:06:51.265Z,101569.31
2023-05-28T07:07:50.106Z,101577.28
2023-05-28T07:08:45.256Z,101571.22
2023-05-28T07:09:37.525Z,101568.78
2023-05-28T07:10:29.638Z,101568.00
2023-05-28T07:11:21.477Z,101563.63
2023-05-28T07:12:12.953Z,101565.38
2023-05-28T07:13:10.099Z,101569.88
2023-05-28T07:14:01.714Z,101565.66
2023-05-28T07:14:53.395Z,101563.97
2023-05-28T07:15:45.541Z,101568.38
2023-05-28T07:16:37.319Z,101564.94
2023-05-28T07:17:29.377Z,101566.78
2023-05-28T07:18:21.196Z,101562.53
2023-05-28T07:19:12.691Z,101572.19
2023-05-28T07:20:07.800Z,101564.47
2023-05-28T07:21:21.681Z,101560.31
2023-05-28T07:22:13.266Z,101566.47
2023-05-28T07:23:05.832Z,101570.88
2023-05-28T07:23:57.379Z,101569.22
2023-05-28T07:24:51.952Z,101566.69
2023-05-28T07:25:44.325Z,101560.59
2023-05-28T07:26:36.474Z,101563.44
2023-05-28T07:27:28.489Z,101568.00
2023-05-28T07:28:20.038Z,101567.25
2023-05-28T07:29:16.461Z,101573.41
2023-05-28T07:30:09.057Z,101572.63
2023-05-28T07:31:02.729Z,101573.56
2023-05-28T07:31:55.080Z,101567.47
2023-05-28T07:32:51.883Z,101571.91
2023-05-28T07:33:43.382Z,101574.59
2023-05-28T07:34:34.898Z,101568.53
2023-05-28T07:35:26.675Z,101572.03
2023-05-28T07:36:18.140Z,101572.09
2023-05-28T07:37:11.976Z,101567.75
2023-05-28T07:38:06.929Z,101572.16
2023-05-28T07:38:58.444Z,101577.41
2023-05-28T07:39:50.284Z,101571.38
2023-05-28T07:40:42.606Z,101571.44
2023-05-28T07:41:43.188Z,101562.69
2023-05-28T07:42:57.604Z,101567.22
2023-05-28T07:43:49.776Z,101571.66
2023-05-28T07:44:44.795Z,101565.66
2023-05-28T07:45:38.478Z,101567.44
2023-05-28T07:46:30.946Z,101562.19
2023-05-28T07:47:33.214Z,101571.03
2023-05-28T07:48:38.782Z,101564.00
2023-05-28T07:49:35.791Z,101564.03
2023-05-28T07:50:28.047Z,101566.63
2023-05-28T07:51:36.437Z,101563.97
2023-05-28T07:52:34.658Z,101561.34
2023-05-28T07:53:26.318Z,101562.25
2023-05-28T07:54:17.828Z,101563.16
2023-05-28T07:55:11.141Z,101557.88
2023-05-28T07:56:03.699Z,101563.16
2023-05-28T07:56:57.232Z,101558.75
2023-05-28T07:57:54.128Z,101554.38
2023-05-28T07:58:46.612Z,101562.31
2023-05-28T07:59:40.436Z,101557.88
2023-05-28T08:00:33.692Z,101556.16
2023-05-28T08:01:27.559Z,101560.53
2023-05-28T08:02:20.227Z,101552.66
2023-05-28T08:03:12.601Z,101553.56
2023-05-28T08:04:08.204Z,101553.53
2023-05-28T08:05:03.218Z,101543.03
2023-05-28T08:05:56.245Z,101543.88
2023-05-28T08:06:48.053Z,101547.41
2023-05-28T08:07:43.569Z,101539.47
2023-05-28T08:08:35.300Z,101550.00
2023-05-28T08:09:27.615Z,101541.22
2023-05-28T08:10:21.981Z,101549.13
2023-05-28T08:11:15.882Z,101546.50
2023-05-28T08:12:07.802Z,101544.72
2023-05-28T08:12:59.862Z,101548.22
2023-05-28T08:13:51.373Z,101551.78
2023-05-28T08:14:43.423Z,101544.72
2023-05-28T08:15:36.985Z,101550.91
2023-05-28T08:16:33.114Z,101544.78
2023-05-28T08:17:37.246Z,101549.16
2023-05-28T08:18:41.771Z,101547.41
2023-05-28T08:19:33.274Z,101552.66
2023-05-28T08:20:30.248Z,101550.94
2023-05-28T08:21:28.076Z,101542.13
2023-05-28T08:22:19.648Z,101542.13
2023-05-28T08:23:12.425Z,101538.63
2023-05-28T08:24:04.550Z,101538.53
2023-05-28T08:24:57.231Z,101533.28
2023-05-28T08:25:48.817Z,101537.69
2023-05-28T08:26:45.776Z,101540.34
2023-05-28T08:27:37.453Z,101531.53
2023-05-28T08:28:30.822Z,101531.56
2023-05-28T08:29:24.818Z,101532.44
2023-05-28T08:30:23.504Z,101529.78
2023-05-28T08:31:23.881Z,101532.44
2023-05-28T08:32:39.676Z,101537.66
2023-05-28T08:33:31.286Z,101539.44
2023-05-28T08:34:23.449Z,101534.19
2023-05-28T08:35:16.572Z,101538.59
2023-05-28T08:36:08.171Z,101532.41
2023-05-28T08:37:00.596Z,101530.66
2023-05-28T08:37:59.652Z,101534.16
2023-05-28T08:39:00.168Z,101533.16
2023-05-28T08:39:52.551Z,101526.84
2023-05-28T08:40:54.593Z,101520.69
2023-05-28T08:41:46.809Z,101524.19
2023-05-28T08:42:44.368Z,101525.03
2023-05-28T08:43:37.559Z,101517.06
2023-05-28T08:44:29.145Z,101514.28
2023-05-28T08:45:21.350Z,101510.75
2023-05-28T08:46:16.116Z,101514.31
2023-05-28T08:47:34.304Z,101510.56
2023-05-28T08:48:35.684Z,101508.03
2023-05-28T08:49:39.329Z,101509.88
2023-05-28T08:50:41.357Z,101513.22
2023-05-28T08:51:43.531Z,101512.47
2023-05-28T08:52:38.359Z,101499.25
2023-05-28T08:53:41.640Z,101504.56
2023-05-28T08:54:35.263Z,101508.94
2023-05-28T08:55:26.674Z,101505.47
2023-05-28T08:56:28.215Z,101506.47
2023-05-28T08:57:22.119Z,101500.25
2023-05-28T08:58:25.216Z,101502.94
2023-05-28T08:59:17.447Z,101501.97
2023-05-28T09:00:14.730Z,101498.44
2023-05-28T09:01:33.898Z,101503.69
2023-05-28T09:02:34.563Z,101501.91
2023-05-28T09:03:26.455Z,101498.28
2023-05-28T09:04:20.641Z,101488.66
2023-05-28T09:05:13.801Z,101494.78
2023-05-28T09:06:05.241Z,101502.72
2023-05-28T09:06:57.135Z,101498.28
2023-05-28T09:08:02.797Z,101491.16
2023-05-28T09:08:54.705Z,101498.16
2023-05-28T09:10:27.131Z,101494.53
2023-05-28T09:11:19.714Z,101489.25
2023-05-28T09:12:13.430Z,101485.75
2023-05-28T09:13:08.672Z,101487.53
2023-05-28T09:14:10.068Z,101494.66
2023-05-28T09:15:02.141Z,101476.16
2023-05-28T09:15:55.951Z,101484.00
2023-05-28T09:16:47.411Z,101476.91
2023-05-28T09:17:45.428Z,101475.00
2023-05-28T09:18:45.475Z,101474.91
2023-05-28T09:19:38.864Z,101483.75
2023-05-28T09:20:30.470Z,101473.97
2023-05-28T09:21:22.181Z,101475.75
2023-05-28T09:22:14.017Z,101473.22
2023-05-28T09:23:17.915Z,101472.13
2023-05-28T09:24:32.069Z,101471.19
2023-05-28T09:25:46.071Z,101479.91
2023-05-28T09:26:42.463Z,101471.19
2023-05-28T09:27:46.957Z,101470.25
2023-05-28T09:28:44.774Z,101467.63
2023-05-28T09:29:36.806Z,101473.75
2023-05-28T09:30:30.397Z,101468.34
2023-05-28T09:31:34.818Z,101471.03
2023-05-28T09:32:26.666Z,101468.44
2023-05-28T09:33:19.071Z,101467.50
2023-05-28T09:34:12.994Z,101464.69
2023-05-28T09:35:08.542Z,101463.31
2023-05-28T09:36:01.663Z,101463.25
2023-05-28T09:36:53.470Z,101465.16
2023-05-28T09:37:44.854Z,101460.78
2023-05-28T09:38:41.050Z,101459.03
2023-05-28T09:39:34.992Z,101464.31
2023-05-28T09:40:27.444Z,101458.13
2023-05-28T09:41:21.193Z,101466.06
2023-05-28T09:42:14.181Z,101462.34
2023-05-28T09:43:06.979Z,101462.41
2023-05-28T09:44:03.721Z,101465.19
2023-05-28T09:44:55.140Z,101454.75
2023-05-28T09:45:48.732Z,101450.34
2023-05-28T09:46:40.186Z,101456.47
2023-05-28T09:47:31.702Z,101456.31
2023-05-28T09:48:23.217Z,101451.06
2023-05-28T09:49:14.815Z,101451.00
2023-05-28T09:50:08.882Z,101450.88
2023-05-28T09:51:05.483Z,101448.13
2023-05-28T09:52:03.669Z,101446.41
2023-05-28T09:52:58.251Z,101447.25
2023-05-28T09:54:01.325Z,101440.09
2023-05-28T09:54:56.341Z,101444.34
2023-05-28T09:55:48.327Z,101441.63
2023-05-28T09:56:43.336Z,101447.63
2023-05-28T09:57:39.270Z,101443.34
2023-05-28T09:58:35.477Z,101450.53
2023-05-28T09:59:28.115Z,101454.09
2023-05-28T10:00:27.337Z,101453.94
2023-05-28T10:01:26.026Z,101446.88
2023-05-28T10:02:38.964Z,101446.00
2023-05-28T10:03:45.121Z,101449.38
2023-05-28T10:04:39.311Z,101448.59
2023-05-28T10:05:34.527Z,101438.09
2023-05-28T10:06:27.084Z,101444.31
2023-05-28T10:07:22.919Z,101440.75
2023-05-28T10:08:17.073Z,101438.59
2023-05-28T10:09:17.223Z,101438.69
2023-05-28T10:10:13.548Z,101447.66
2023-05-28T10:11:11.848Z,101437.31
2023-05-28T10:12:11.490Z,101435.66
2023-05-28T10:13:03.316Z,101439.16
2023-05-28T10:13:57.211Z,101432.16
2023-05-28T10:14:53.065Z,101436.34
2023-05-28T10:15:46.422Z,101438.31
2023-05-28T10:16:39.146Z,101437.63
2023-05-28T10:17:31.088Z,101436.84
2023-05-28T10:18:26.342Z,101442.97
2023-05-28T10:19:18.677Z,101446.56
2023-05-28T10:20:15.179Z,101439.63
2023-05-28T10:21:08.561Z,101439.72
2023-05-28T10:22:00.545Z,101443.25